sensor_id;sensor_type;location;lat;lon;timestamp;temperature;humidity
29855;DHT22;16733;48.738;9.106;2023-03-14T00:00:58;9.30;99.90
29855;DHT22;16733;48.738;9.106;2023-03-14T00:03:24;9.30;99.90
29855;DHT22;16733;48.738;9.106;2023-03-14T00:05:49;9.30;99.90
29855;DHT22;16733;48.738;9.106;2023-03-14T00:08:15;9.30;99.90
29855;DHT22;16733;48.738;9.106;2023-03-14T00:10:40;9.30;99.90
29855;DHT22;16733;48.738;9.106;2023-03-14T00:13:06;9.20;99.90
29855;DHT22;16733;48.738;9.106;2023-03-14T00:15:35;9.30;99.90
29855;DHT22;16733;48.738;9.106;2023-03-14T00:18:04;9.20;99.90
29855;DHT22;16733;48.738;9.106;2023-03-14T00:20:30;9.30;99.90
29855;DHT22;16733;48.738;9.106;2023-03-14T00:22:55;9.30;99.90
29855;DHT22;16733;48.738;9.106;2023-03-14T00:25:21;9.30;99.90
29855;DHT22;16733;48.738;9.106;2023-03-14T00:27:52;9.30;99.90
29855;DHT22;16733;48.738;9.106;2023-03-14T00:30:18;9.30;99.90
29855;DHT22;16733;48.738;9.106;2023-03-14T00:32:44;9.30;99.90
29855;DHT22;16733;48.738;9.106;2023-03-14T00:35:09;9.30;99.90
29855;DHT22;16733;48.738;9.106;2023-03-14T00:37:35;9.30;99.90
29855;DHT22;16733;48.738;9.106;2023-03-14T00:40:01;9.30;99.90
29855;DHT22;16733;48.738;9.106;2023-03-14T00:42:26;9.30;99.90
29855;DHT22;16733;48.738;9.106;2023-03-14T00:44:52;9.30;99.90
29855;DHT22;16733;48.738;9.106;2023-03-14T00:47:18;9.30;99.90
29855;DHT22;16733;48.738;9.106;2023-03-14T00:49:43;9.30;99.90
29855;DHT22;16733;48.738;9.106;2023-03-14T00:52:09;9.40;99.90
29855;DHT22;16733;48.738;9.106;2023-03-14T00:54:35;9.40;99.90
29855;DHT22;16733;48.738;9.106;2023-03-14T00:57:00;9.40;99.90
29855;DHT22;16733;48.738;9.106;2023-03-14T00:59:26;9.40;99.90
29855;DHT22;16733;48.738;9.106;2023-03-14T01:01:51;9.40;99.90
29855;DHT22;16733;48.738;9.106;2023-03-14T01:04:17;9.40;99.90
29855;DHT22;16733;48.738;9.106;2023-03-14T01:06:43;9.40;99.90
29855;DHT22;16733;48.738;9.106;2023-03-14T01:09:08;9.40;99.90
29855;DHT22;16733;48.738;9.106;2023-03-14T01:11:34;9.40;99.90
29855;DHT22;16733;48.738;9.106;2023-03-14T01:14:01;9.40;99.90
29855;DHT22;16733;48.738;9.106;2023-03-14T01:16:29;9.40;99.90
29855;DHT22;16733;48.738;9.106;2023-03-14T01:18:55;9.40;99.90
29855;DHT22;16733;48.738;9.106;2023-03-14T01:21:26;9.40;99.90
29855;DHT22;16733;48.738;9.106;2023-03-14T01:23:53;9.40;99.90
29855;DHT22;16733;48.738;9.106;2023-03-14T01:26:22;9.40;99.90
29855;DHT22;16733;48.738;9.106;2023-03-14T01:28:49;9.40;99.90
29855;DHT22;16733;48.738;9.106;2023-03-14T01:31:15;9.40;99.90
29855;DHT22;16733;48.738;9.106;2023-03-14T01:33:41;9.40;99.90
29855;DHT22;16733;48.738;9.106;2023-03-14T01:36:07;9.40;99.90
29855;DHT22;16733;48.738;9.106;2023-03-14T01:38:35;9.40;99.90
29855;DHT22;16733;48.738;9.106;2023-03-14T01:41:01;9.40;99.90
29855;DHT22;16733;48.738;9.106;2023-03-14T01:43:27;9.30;99.90
29855;DHT22;16733;48.738;9.106;2023-03-14T01:51:35;9.30;99.90
29855;DHT22;16733;48.738;9.106;2023-03-14T01:54:12;9.30;99.90
29855;DHT22;16733;48.738;9.106;2023-03-14T01:56:41;9.30;99.90
29855;DHT22;16733;48.738;9.106;2023-03-14T01:59:09;9.20;99.90
29855;DHT22;16733;48.738;9.106;2023-03-14T02:01:36;9.20;99.90
29855;DHT22;16733;48.738;9.106;2023-03-14T02:04:03;9.20;99.90
29855;DHT22;16733;48.738;9.106;2023-03-14T02:06:50;9.20;99.90
29855;DHT22;16733;48.738;9.106;2023-03-14T02:09:16;9.20;99.90
29855;DHT22;16733;48.738;9.106;2023-03-14T02:11:43;9.20;99.90
29855;DHT22;16733;48.738;9.106;2023-03-14T02:14:16;9.20;99.90
29855;DHT22;16733;48.738;9.106;2023-03-14T02:16:43;9.20;99.90
29855;DHT22;16733;48.738;9.106;2023-03-14T02:19:10;9.20;99.90
29855;DHT22;16733;48.738;9.106;2023-03-14T02:21:57;9.20;99.90
29855;DHT22;16733;48.738;9.106;2023-03-14T02:24:53;9.20;99.90
29855;DHT22;16733;48.738;9.106;2023-03-14T02:27:20;9.20;99.90
29855;DHT22;16733;48.738;9.106;2023-03-14T02:32:18;9.20;99.90
29855;DHT22;16733;48.738;9.106;2023-03-14T02:34:49;9.20;99.90
29855;DHT22;16733;48.738;9.106;2023-03-14T02:37:17;9.20;99.90
29855;DHT22;16733;48.738;9.106;2023-03-14T02:39:45;9.20;99.90
29855;DHT22;16733;48.738;9.106;2023-03-14T02:42:13;9.20;99.90
29855;DHT22;16733;48.738;9.106;2023-03-14T02:47:34;9.20;99.90
29855;DHT22;16733;48.738;9.106;2023-03-14T02:50:09;9.20;99.90
29855;DHT22;16733;48.738;9.106;2023-03-14T02:52:35;9.20;99.90
29855;DHT22;16733;48.738;9.106;2023-03-14T02:55:01;9.20;99.90
29855;DHT22;16733;48.738;9.106;2023-03-14T02:57:26;9.10;99.90
29855;DHT22;16733;48.738;9.106;2023-03-14T02:59:52;9.10;99.90
29855;DHT22;16733;48.738;9.106;2023-03-14T03:02:17;9.10;99.90
29855;DHT22;16733;48.738;9.106;2023-03-14T03:04:43;9.10;99.90
29855;DHT22;16733;48.738;9.106;2023-03-14T03:07:09;9.10;99.90
29855;DHT22;16733;48.738;9.106;2023-03-14T03:09:34;9.10;99.90
29855;DHT22;16733;48.738;9.106;2023-03-14T03:12:00;9.10;99.90
29855;DHT22;16733;48.738;9.106;2023-03-14T03:14:26;9.10;99.90
29855;DHT22;16733;48.738;9.106;2023-03-14T03:16:51;9.10;99.90
29855;DHT22;16733;48.738;9.106;2023-03-14T03:19:17;9.10;99.90
29855;DHT22;16733;48.738;9.106;2023-03-14T03:21:43;9.10;99.90
29855;DHT22;16733;48.738;9.106;2023-03-14T03:24:09;9.10;99.90
29855;DHT22;16733;48.738;9.106;2023-03-14T03:26:35;9.10;99.90
29855;DHT22;16733;48.738;9.106;2023-03-14T03:29:01;9.10;99.90
29855;DHT22;16733;48.738;9.106;2023-03-14T03:31:26;9.10;99.90
29855;DHT22;16733;48.738;9.106;2023-03-14T03:33:52;9.10;99.90
29855;DHT22;16733;48.738;9.106;2023-03-14T03:36:21;9.10;99.90
29855;DHT22;16733;48.738;9.106;2023-03-14T03:38:48;9.10;99.90
29855;DHT22;16733;48.738;9.106;2023-03-14T03:41:13;9.10;99.90
29855;DHT22;16733;48.738;9.106;2023-03-14T03:43:39;9.10;99.90
29855;DHT22;16733;48.738;9.106;2023-03-14T03:46:06;9.00;99.90
29855;DHT22;16733;48.738;9.106;2023-03-14T03:48:33;9.00;99.90
29855;DHT22;16733;48.738;9.106;2023-03-14T03:50:58;9.00;99.90
29855;DHT22;16733;48.738;9.106;2023-03-14T03:53:24;9.00;99.90
29855;DHT22;16733;48.738;9.106;2023-03-14T03:55:50;9.00;99.90
29855;DHT22;16733;48.738;9.106;2023-03-14T03:58:15;9.00;99.90
29855;DHT22;16733;48.738;9.106;2023-03-14T04:00:41;9.00;99.90
29855;DHT22;16733;48.738;9.106;2023-03-14T04:03:06;8.90;99.90
29855;DHT22;16733;48.738;9.106;2023-03-14T04:05:32;8.90;99.90
29855;DHT22;16733;48.738;9.106;2023-03-14T04:07:59;8.90;99.90
29855;DHT22;16733;48.738;9.106;2023-03-14T04:10:25;8.90;99.90
29855;DHT22;16733;48.738;9.106;2023-03-14T04:12:51;8.90;99.90
29855;DHT22;16733;48.738;9.106;2023-03-14T04:15:17;8.90;99.90
29855;DHT22;16733;48.738;9.106;2023-03-14T04:17:43;8.90;99.90
29855;DHT22;16733;48.738;9.106;2023-03-14T04:20:09;8.80;99.90
29855;DHT22;16733;48.738;9.106;2023-03-14T04:22:36;8.80;99.90
29855;DHT22;16733;48.738;9.106;2023-03-14T04:25:02;8.80;99.90
29855;DHT22;16733;48.738;9.106;2023-03-14T04:27:28;8.80;99.90
29855;DHT22;16733;48.738;9.106;2023-03-14T04:29:54;8.80;99.90
29855;DHT22;16733;48.738;9.106;2023-03-14T04:32:20;8.90;99.90
29855;DHT22;16733;48.738;9.106;2023-03-14T04:34:45;8.80;99.90
29855;DHT22;16733;48.738;9.106;2023-03-14T04:37:11;8.90;99.90
29855;DHT22;16733;48.738;9.106;2023-03-14T04:39:37;8.90;99.90
29855;DHT22;16733;48.738;9.106;2023-03-14T04:42:02;8.90;99.90
29855;DHT22;16733;48.738;9.106;2023-03-14T04:44:28;8.90;99.90
29855;DHT22;16733;48.738;9.106;2023-03-14T04:46:54;8.80;99.90
29855;DHT22;16733;48.738;9.106;2023-03-14T04:49:19;8.80;99.90
29855;DHT22;16733;48.738;9.106;2023-03-14T04:51:45;8.80;99.90
29855;DHT22;16733;48.738;9.106;2023-03-14T04:54:11;8.80;99.90
29855;DHT22;16733;48.738;9.106;2023-03-14T04:56:36;8.80;99.90
29855;DHT22;16733;48.738;9.106;2023-03-14T04:59:02;8.80;99.90
29855;DHT22;16733;48.738;9.106;2023-03-14T05:01:28;8.70;99.90
29855;DHT22;16733;48.738;9.106;2023-03-14T05:03:54;8.70;99.90
29855;DHT22;16733;48.738;9.106;2023-03-14T05:06:19;8.70;99.90
29855;DHT22;16733;48.738;9.106;2023-03-14T05:08:45;8.70;99.90
29855;DHT22;16733;48.738;9.106;2023-03-14T05:11:11;8.70;99.90
29855;DHT22;16733;48.738;9.106;2023-03-14T05:13:37;8.60;99.90
29855;DHT22;16733;48.738;9.106;2023-03-14T05:16:07;8.60;99.90
29855;DHT22;16733;48.738;9.106;2023-03-14T05:18:33;8.60;99.90
29855;DHT22;16733;48.738;9.106;2023-03-14T05:20:59;8.60;99.90
29855;DHT22;16733;48.738;9.106;2023-03-14T05:23:25;8.70;99.90
29855;DHT22;16733;48.738;9.106;2023-03-14T05:25:51;8.70;99.90
29855;DHT22;16733;48.738;9.106;2023-03-14T05:28:16;8.70;99.90
29855;DHT22;16733;48.738;9.106;2023-03-14T05:30:42;8.70;99.90
29855;DHT22;16733;48.738;9.106;2023-03-14T05:33:08;8.70;99.90
29855;DHT22;16733;48.738;9.106;2023-03-14T05:35:33;8.70;99.90
29855;DHT22;16733;48.738;9.106;2023-03-14T05:37:59;8.80;99.90
29855;DHT22;16733;48.738;9.106;2023-03-14T05:40:25;8.80;99.90
29855;DHT22;16733;48.738;9.106;2023-03-14T05:42:50;8.80;99.90
29855;DHT22;16733;48.738;9.106;2023-03-14T05:45:17;8.80;99.90
29855;DHT22;16733;48.738;9.106;2023-03-14T05:47:43;8.80;99.90
29855;DHT22;16733;48.738;9.106;2023-03-14T05:50:09;8.80;99.90
29855;DHT22;16733;48.738;9.106;2023-03-14T05:52:35;8.80;99.90
29855;DHT22;16733;48.738;9.106;2023-03-14T05:55:01;8.70;99.90
29855;DHT22;16733;48.738;9.106;2023-03-14T05:57:26;8.70;99.90
29855;DHT22;16733;48.738;9.106;2023-03-14T05:59:52;8.70;99.90
29855;DHT22;16733;48.738;9.106;2023-03-14T06:02:17;8.70;99.90
29855;DHT22;16733;48.738;9.106;2023-03-14T06:04:43;8.70;99.90
29855;DHT22;16733;48.738;9.106;2023-03-14T06:07:09;8.70;99.90
29855;DHT22;16733;48.738;9.106;2023-03-14T06:09:34;8.70;99.90
29855;DHT22;16733;48.738;9.106;2023-03-14T06:12:00;8.70;99.90
29855;DHT22;16733;48.738;9.106;2023-03-14T06:14:25;8.70;99.90
29855;DHT22;16733;48.738;9.106;2023-03-14T06:16:51;8.70;99.90
29855;DHT22;16733;48.738;9.106;2023-03-14T06:19:17;8.70;99.90
29855;DHT22;16733;48.738;9.106;2023-03-14T06:21:43;8.70;99.90
29855;DHT22;16733;48.738;9.106;2023-03-14T06:24:09;8.70;99.90
29855;DHT22;16733;48.738;9.106;2023-03-14T06:26:34;8.80;99.90
29855;DHT22;16733;48.738;9.106;2023-03-14T06:29:00;8.80;99.90
29855;DHT22;16733;48.738;9.106;2023-03-14T06:31:29;8.80;99.90
29855;DHT22;16733;48.738;9.106;2023-03-14T06:33:55;8.90;99.90
29855;DHT22;16733;48.738;9.106;2023-03-14T06:36:21;8.90;99.90
29855;DHT22;16733;48.738;9.106;2023-03-14T06:38:47;8.90;99.90
29855;DHT22;16733;48.738;9.106;2023-03-14T06:41:12;9.00;99.90
29855;DHT22;16733;48.738;9.106;2023-03-14T06:43:38;9.00;99.90
29855;DHT22;16733;48.738;9.106;2023-03-14T06:46:04;9.00;99.90
29855;DHT22;16733;48.738;9.106;2023-03-14T06:48:29;9.00;99.90
29855;DHT22;16733;48.738;9.106;2023-03-14T06:50:55;9.10;99.90
29855;DHT22;16733;48.738;9.106;2023-03-14T06:53:20;9.10;99.90
29855;DHT22;16733;48.738;9.106;2023-03-14T06:55:46;9.10;99.90
29855;DHT22;16733;48.738;9.106;2023-03-14T06:58:12;9.10;99.90
29855;DHT22;16733;48.738;9.106;2023-03-14T07:00:37;9.10;99.90
29855;DHT22;16733;48.738;9.106;2023-03-14T07:03:03;9.20;99.90
29855;DHT22;16733;48.738;9.106;2023-03-14T07:05:29;9.20;99.90
29855;DHT22;16733;48.738;9.106;2023-03-14T07:07:54;9.30;99.90
29855;DHT22;16733;48.738;9.106;2023-03-14T07:10:20;9.30;99.90
29855;DHT22;16733;48.738;9.106;2023-03-14T07:12:46;9.30;99.90
29855;DHT22;16733;48.738;9.106;2023-03-14T07:15:11;9.40;99.90
29855;DHT22;16733;48.738;9.106;2023-03-14T07:17:37;9.40;99.90
29855;DHT22;16733;48.738;9.106;2023-03-14T07:20:03;9.50;99.90
29855;DHT22;16733;48.738;9.106;2023-03-14T07:22:30;9.50;99.90
29855;DHT22;16733;48.738;9.106;2023-03-14T07:24:56;9.60;99.90
29855;DHT22;16733;48.738;9.106;2023-03-14T07:27:21;9.60;99.90
29855;DHT22;16733;48.738;9.106;2023-03-14T07:29:47;9.70;99.90
29855;DHT22;16733;48.738;9.106;2023-03-14T07:32:12;9.80;99.90
29855;DHT22;16733;48.738;9.106;2023-03-14T07:34:41;9.80;99.90
29855;DHT22;16733;48.738;9.106;2023-03-14T07:37:07;9.90;99.90
29855;DHT22;16733;48.738;9.106;2023-03-14T07:39:32;10.00;99.90
29855;DHT22;16733;48.738;9.106;2023-03-14T07:41:58;10.00;99.90
29855;DHT22;16733;48.738;9.106;2023-03-14T07:44:23;10.10;99.90
29855;DHT22;16733;48.738;9.106;2023-03-14T07:46:49;10.20;99.90
29855;DHT22;16733;48.738;9.106;2023-03-14T07:49:14;10.20;99.90
29855;DHT22;16733;48.738;9.106;2023-03-14T07:51:40;10.30;99.90
29855;DHT22;16733;48.738;9.106;2023-03-14T07:54:06;10.40;99.90
29855;DHT22;16733;48.738;9.106;2023-03-14T07:56:31;10.50;99.90
29855;DHT22;16733;48.738;9.106;2023-03-14T07:58:57;10.60;99.90
29855;DHT22;16733;48.738;9.106;2023-03-14T08:01:22;10.70;99.90
29855;DHT22;16733;48.738;9.106;2023-03-14T08:03:48;10.70;99.90
29855;DHT22;16733;48.738;9.106;2023-03-14T08:06:13;10.80;99.90
29855;DHT22;16733;48.738;9.106;2023-03-14T08:08:39;11.00;99.90
29855;DHT22;16733;48.738;9.106;2023-03-14T08:11:06;11.00;99.90
29855;DHT22;16733;48.738;9.106;2023-03-14T08:13:34;11.00;99.90
29855;DHT22;16733;48.738;9.106;2023-03-14T08:16:00;11.10;99.90
29855;DHT22;16733;48.738;9.106;2023-03-14T08:18:25;11.20;99.90
29855;DHT22;16733;48.738;9.106;2023-03-14T08:20:51;11.20;99.90
29855;DHT22;16733;48.738;9.106;2023-03-14T08:23:16;11.30;99.90
29855;DHT22;16733;48.738;9.106;2023-03-14T08:25:42;11.30;99.90
29855;DHT22;16733;48.738;9.106;2023-03-14T08:28:08;11.40;99.90
29855;DHT22;16733;48.738;9.106;2023-03-14T08:30:34;11.50;99.90
29855;DHT22;16733;48.738;9.106;2023-03-14T08:33:00;11.60;99.90
29855;DHT22;16733;48.738;9.106;2023-03-14T08:35:26;11.70;99.90
29855;DHT22;16733;48.738;9.106;2023-03-14T08:37:52;11.80;99.90
29855;DHT22;16733;48.738;9.106;2023-03-14T08:40:18;11.90;99.90
29855;DHT22;16733;48.738;9.106;2023-03-14T08:42:44;12.00;99.90
29855;DHT22;16733;48.738;9.106;2023-03-14T08:45:12;12.00;99.90
29855;DHT22;16733;48.738;9.106;2023-03-14T08:47:38;12.00;99.90
29855;DHT22;16733;48.738;9.106;2023-03-14T08:50:05;12.00;99.90
29855;DHT22;16733;48.738;9.106;2023-03-14T08:52:31;12.00;99.90
29855;DHT22;16733;48.738;9.106;2023-03-14T08:54:57;12.00;99.90
29855;DHT22;16733;48.738;9.106;2023-03-14T08:57:23;12.00;99.90
29855;DHT22;16733;48.738;9.106;2023-03-14T08:59:56;12.00;99.90
29855;DHT22;16733;48.738;9.106;2023-03-14T09:02:23;12.00;99.90
29855;DHT22;16733;48.738;9.106;2023-03-14T09:04:52;12.00;99.90
29855;DHT22;16733;48.738;9.106;2023-03-14T09:07:19;11.90;99.90
29855;DHT22;16733;48.738;9.106;2023-03-14T09:09:44;11.70;99.90
29855;DHT22;16733;48.738;9.106;2023-03-14T09:12:10;11.50;99.90
29855;DHT22;16733;48.738;9.106;2023-03-14T09:14:36;11.40;99.90
29855;DHT22;16733;48.738;9.106;2023-03-14T09:17:03;11.30;99.90
29855;DHT22;16733;48.738;9.106;2023-03-14T09:19:29;11.10;99.90
29855;DHT22;16733;48.738;9.106;2023-03-14T09:21:54;11.00;99.90
29855;DHT22;16733;48.738;9.106;2023-03-14T09:24:20;10.80;99.90
29855;DHT22;16733;48.738;9.106;2023-03-14T09:26:46;10.70;99.90
29855;DHT22;16733;48.738;9.106;2023-03-14T09:29:11;10.70;99.90
29855;DHT22;16733;48.738;9.106;2023-03-14T09:31:37;10.80;99.90
29855;DHT22;16733;48.738;9.106;2023-03-14T09:34:03;11.00;99.90
29855;DHT22;16733;48.738;9.106;2023-03-14T09:36:29;11.10;99.90
29855;DHT22;16733;48.738;9.106;2023-03-14T09:38:54;11.20;99.90
29855;DHT22;16733;48.738;9.106;2023-03-14T09:41:29;11.20;99.90
29855;DHT22;16733;48.738;9.106;2023-03-14T09:44:25;11.20;99.90
29855;DHT22;16733;48.738;9.106;2023-03-14T09:46:55;11.30;99.90
29855;DHT22;16733;48.738;9.106;2023-03-14T09:49:34;11.20;99.90
29855;DHT22;16733;48.738;9.106;2023-03-14T09:52:06;11.30;99.90
29855;DHT22;16733;48.738;9.106;2023-03-14T09:54:38;11.30;99.90
29855;DHT22;16733;48.738;9.106;2023-03-14T09:57:12;11.30;99.90
29855;DHT22;16733;48.738;9.106;2023-03-14T09:59:39;11.30;99.90
29855;DHT22;16733;48.738;9.106;2023-03-14T10:02:24;11.20;99.90
29855;DHT22;16733;48.738;9.106;2023-03-14T10:04:52;11.20;99.90
29855;DHT22;16733;48.738;9.106;2023-03-14T10:07:43;11.30;99.90
29855;DHT22;16733;48.738;9.106;2023-03-14T10:10:17;11.30;99.90
29855;DHT22;16733;48.738;9.106;2023-03-14T10:12:46;11.40;99.90
29855;DHT22;16733;48.738;9.106;2023-03-14T10:15:13;11.60;99.90
29855;DHT22;16733;48.738;9.106;2023-03-14T10:17:47;11.80;99.90
29855;DHT22;16733;48.738;9.106;2023-03-14T10:20:37;12.00;99.90
29855;DHT22;16733;48.738;9.106;2023-03-14T10:25:37;12.30;99.90
29855;DHT22;16733;48.738;9.106;2023-03-14T10:28:04;12.40;99.90
29855;DHT22;16733;48.738;9.106;2023-03-14T10:30:43;12.60;99.90
29855;DHT22;16733;48.738;9.106;2023-03-14T10:33:21;12.70;99.90
29855;DHT22;16733;48.738;9.106;2023-03-14T10:35:57;12.70;99.90
29855;DHT22;16733;48.738;9.106;2023-03-14T10:38:26;12.70;99.90
29855;DHT22;16733;48.738;9.106;2023-03-14T10:40:53;12.70;99.90
29855;DHT22;16733;48.738;9.106;2023-03-14T10:43:23;12.70;99.90
29855;DHT22;16733;48.738;9.106;2023-03-14T10:46:09;12.60;99.90
29855;DHT22;16733;48.738;9.106;2023-03-14T10:48:36;12.50;99.90
29855;DHT22;16733;48.738;9.106;2023-03-14T10:51:19;12.40;99.90
29855;DHT22;16733;48.738;9.106;2023-03-14T10:56:20;12.00;99.90
29855;DHT22;16733;48.738;9.106;2023-03-14T10:58:48;11.70;99.90
29855;DHT22;16733;48.738;9.106;2023-03-14T11:01:44;11.30;99.90
29855;DHT22;16733;48.738;9.106;2023-03-14T11:20:58;10.90;99.90
29855;DHT22;16733;48.738;9.106;2023-03-14T11:23:32;10.80;99.90
29855;DHT22;16733;48.738;9.106;2023-03-14T11:26:25;10.50;99.90
29855;DHT22;16733;48.738;9.106;2023-03-14T11:29:01;10.30;99.90
29855;DHT22;16733;48.738;9.106;2023-03-14T11:31:29;10.10;99.90
29855;DHT22;16733;48.738;9.106;2023-03-14T11:34:22;10.00;99.90
29855;DHT22;16733;48.738;9.106;2023-03-14T11:37:05;9.80;99.90
29855;DHT22;16733;48.738;9.106;2023-03-14T11:39:40;9.80;99.90
29855;DHT22;16733;48.738;9.106;2023-03-14T11:42:12;9.80;99.90
29855;DHT22;16733;48.738;9.106;2023-03-14T11:44:40;9.80;99.90
29855;DHT22;16733;48.738;9.106;2023-03-14T11:47:18;9.80;99.90
29855;DHT22;16733;48.738;9.106;2023-03-14T11:49:56;9.70;99.90
29855;DHT22;16733;48.738;9.106;2023-03-14T11:52:33;9.70;99.90
29855;DHT22;16733;48.738;9.106;2023-03-14T11:57:40;9.60;99.90
29855;DHT22;16733;48.738;9.106;2023-03-14T12:05:53;9.70;99.90
29855;DHT22;16733;48.738;9.106;2023-03-14T12:08:47;9.70;99.90
29855;DHT22;16733;48.738;9.106;2023-03-14T12:13:47;9.50;99.90
29855;DHT22;16733;48.738;9.106;2023-03-14T12:18:49;9.50;99.90
29855;DHT22;16733;48.738;9.106;2023-03-14T12:21:15;9.60;99.90
29855;DHT22;16733;48.738;9.106;2023-03-14T12:28:38;9.90;99.90
29855;DHT22;16733;48.738;9.106;2023-03-14T12:50:31;11.20;99.90
29855;DHT22;16733;48.738;9.106;2023-03-14T13:01:04;11.50;99.90
29855;DHT22;16733;48.738;9.106;2023-03-14T13:03:45;11.50;99.90
29855;DHT22;16733;48.738;9.106;2023-03-14T13:06:12;11.50;99.90
29855;DHT22;16733;48.738;9.106;2023-03-14T13:08:43;11.40;99.90
29855;DHT22;16733;48.738;9.106;2023-03-14T13:11:18;11.20;99.90
29855;DHT22;16733;48.738;9.106;2023-03-14T13:13:47;10.80;99.90
29855;DHT22;16733;48.738;9.106;2023-03-14T13:16:17;10.70;99.90
29855;DHT22;16733;48.738;9.106;2023-03-14T13:18:46;10.50;99.90
29855;DHT22;16733;48.738;9.106;2023-03-14T13:21:18;10.30;99.90
29855;DHT22;16733;48.738;9.106;2023-03-14T13:24:06;10.30;99.90
29855;DHT22;16733;48.738;9.106;2023-03-14T13:26:43;10.20;99.90
29855;DHT22;16733;48.738;9.106;2023-03-14T13:31:47;10.00;99.90
29855;DHT22;16733;48.738;9.106;2023-03-14T13:34:13;10.00;99.90
29855;DHT22;16733;48.738;9.106;2023-03-14T13:36:39;9.90;99.90
29855;DHT22;16733;48.738;9.106;2023-03-14T13:39:13;9.90;99.90
29855;DHT22;16733;48.738;9.106;2023-03-14T13:41:43;9.90;99.90
29855;DHT22;16733;48.738;9.106;2023-03-14T13:44:15;9.80;99.90
29855;DHT22;16733;48.738;9.106;2023-03-14T13:46:41;9.70;99.90
29855;DHT22;16733;48.738;9.106;2023-03-14T13:49:11;9.60;99.90
29855;DHT22;16733;48.738;9.106;2023-03-14T13:51:39;9.60;99.90
29855;DHT22;16733;48.738;9.106;2023-03-14T13:54:13;9.50;99.90
29855;DHT22;16733;48.738;9.106;2023-03-14T13:56:39;9.50;99.90
29855;DHT22;16733;48.738;9.106;2023-03-14T13:59:24;9.40;99.90
29855;DHT22;16733;48.738;9.106;2023-03-14T14:01:50;9.40;99.90
29855;DHT22;16733;48.738;9.106;2023-03-14T14:04:19;9.30;99.90
29855;DHT22;16733;48.738;9.106;2023-03-14T14:06:58;9.30;99.90
29855;DHT22;16733;48.738;9.106;2023-03-14T14:09:31;9.30;99.90
29855;DHT22;16733;48.738;9.106;2023-03-14T14:12:16;9.30;99.90
29855;DHT22;16733;48.738;9.106;2023-03-14T14:17:20;9.30;99.90
29855;DHT22;16733;48.738;9.106;2023-03-14T14:19:47;9.20;99.90
29855;DHT22;16733;48.738;9.106;2023-03-14T14:22:13;9.20;99.90
29855;DHT22;16733;48.738;9.106;2023-03-14T14:24:39;9.20;99.90
29855;DHT22;16733;48.738;9.106;2023-03-14T14:27:19;9.10;99.90
29855;DHT22;16733;48.738;9.106;2023-03-14T14:30:00;9.10;99.90
29855;DHT22;16733;48.738;9.106;2023-03-14T14:32:26;9.00;99.90
29855;DHT22;16733;48.738;9.106;2023-03-14T14:37:28;9.00;99.90
29855;DHT22;16733;48.738;9.106;2023-03-14T14:39:57;8.90;99.90
29855;DHT22;16733;48.738;9.106;2023-03-14T14:42:26;8.90;99.90
29855;DHT22;16733;48.738;9.106;2023-03-14T14:44:52;9.00;99.90
29855;DHT22;16733;48.738;9.106;2023-03-14T14:47:21;9.00;99.90
29855;DHT22;16733;48.738;9.106;2023-03-14T14:49:48;9.00;99.90
29855;DHT22;16733;48.738;9.106;2023-03-14T14:52:31;9.00;99.90
29855;DHT22;16733;48.738;9.106;2023-03-14T14:54:59;8.90;99.90
29855;DHT22;16733;48.738;9.106;2023-03-14T14:57:31;8.90;99.90
29855;DHT22;16733;48.738;9.106;2023-03-14T15:00:19;8.80;99.90
29855;DHT22;16733;48.738;9.106;2023-03-14T15:02:47;8.80;99.90
29855;DHT22;16733;48.738;9.106;2023-03-14T15:05:19;8.80;99.90
29855;DHT22;16733;48.738;9.106;2023-03-14T15:07:45;8.80;99.90
29855;DHT22;16733;48.738;9.106;2023-03-14T15:10:17;8.90;99.90
29855;DHT22;16733;48.738;9.106;2023-03-14T15:12:42;9.00;99.90
29855;DHT22;16733;48.738;9.106;2023-03-14T15:15:09;9.20;99.90
29855;DHT22;16733;48.738;9.106;2023-03-14T15:17:36;9.30;99.90
29855;DHT22;16733;48.738;9.106;2023-03-14T15:20:09;9.50;99.90
29855;DHT22;16733;48.738;9.106;2023-03-14T15:22:35;9.60;99.90
29855;DHT22;16733;48.738;9.106;2023-03-14T15:25:01;9.60;99.90
29855;DHT22;16733;48.738;9.106;2023-03-14T15:27:28;9.60;99.90
29855;DHT22;16733;48.738;9.106;2023-03-14T15:29:55;9.40;99.90
29855;DHT22;16733;48.738;9.106;2023-03-14T15:32:21;9.30;99.90
29855;DHT22;16733;48.738;9.106;2023-03-14T15:34:46;9.20;99.90
29855;DHT22;16733;48.738;9.106;2023-03-14T15:37:14;9.20;99.90
29855;DHT22;16733;48.738;9.106;2023-03-14T15:39:44;9.20;99.90
29855;DHT22;16733;48.738;9.106;2023-03-14T15:42:09;9.20;99.90
29855;DHT22;16733;48.738;9.106;2023-03-14T15:44:35;9.10;99.90
29855;DHT22;16733;48.738;9.106;2023-03-14T15:47:01;9.10;99.90
29855;DHT22;16733;48.738;9.106;2023-03-14T15:49:27;9.10;99.90
29855;DHT22;16733;48.738;9.106;2023-03-14T15:51:53;9.10;99.90
29855;DHT22;16733;48.738;9.106;2023-03-14T15:54:18;9.00;99.90
29855;DHT22;16733;48.738;9.106;2023-03-14T15:56:44;9.00;99.90
29855;DHT22;16733;48.738;9.106;2023-03-14T15:59:09;9.20;99.90
29855;DHT22;16733;48.738;9.106;2023-03-14T16:01:35;9.20;99.90
29855;DHT22;16733;48.738;9.106;2023-03-14T16:04:01;9.00;99.90
29855;DHT22;16733;48.738;9.106;2023-03-14T16:06:28;8.90;99.90
29855;DHT22;16733;48.738;9.106;2023-03-14T16:08:54;8.70;99.90
29855;DHT22;16733;48.738;9.106;2023-03-14T16:11:19;8.60;99.90
29855;DHT22;16733;48.738;9.106;2023-03-14T16:13:46;8.50;99.90
29855;DHT22;16733;48.738;9.106;2023-03-14T16:16:11;8.50;99.90
29855;DHT22;16733;48.738;9.106;2023-03-14T16:18:40;8.50;99.90
29855;DHT22;16733;48.738;9.106;2023-03-14T16:21:08;8.50;99.90
29855;DHT22;16733;48.738;9.106;2023-03-14T16:23:36;8.50;99.90
29855;DHT22;16733;48.738;9.106;2023-03-14T16:26:06;8.40;99.90
29855;DHT22;16733;48.738;9.106;2023-03-14T16:28:32;8.40;99.90
29855;DHT22;16733;48.738;9.106;2023-03-14T16:31:03;8.40;99.90
29855;DHT22;16733;48.738;9.106;2023-03-14T16:33:29;8.30;99.90
29855;DHT22;16733;48.738;9.106;2023-03-14T16:36:00;8.30;99.90
29855;DHT22;16733;48.738;9.106;2023-03-14T16:38:26;8.20;99.90
29855;DHT22;16733;48.738;9.106;2023-03-14T16:43:26;8.20;99.90
29855;DHT22;16733;48.738;9.106;2023-03-14T16:45:52;8.20;99.90
29855;DHT22;16733;48.738;9.106;2023-03-14T16:48:18;8.20;99.90
29855;DHT22;16733;48.738;9.106;2023-03-14T16:50:44;8.20;99.90
29855;DHT22;16733;48.738;9.106;2023-03-14T16:53:09;8.20;99.90
29855;DHT22;16733;48.738;9.106;2023-03-14T16:55:40;8.20;99.90
29855;DHT22;16733;48.738;9.106;2023-03-14T16:58:06;8.20;99.90
29855;DHT22;16733;48.738;9.106;2023-03-14T17:00:31;8.10;99.90
29855;DHT22;16733;48.738;9.106;2023-03-14T17:02:57;8.20;99.90
29855;DHT22;16733;48.738;9.106;2023-03-14T17:05:22;8.20;99.90
29855;DHT22;16733;48.738;9.106;2023-03-14T17:07:49;8.20;99.90
29855;DHT22;16733;48.738;9.106;2023-03-14T17:10:15;8.20;99.90
29855;DHT22;16733;48.738;9.106;2023-03-14T17:12:41;8.20;99.90
29855;DHT22;16733;48.738;9.106;2023-03-14T17:15:08;8.20;99.90
29855;DHT22;16733;48.738;9.106;2023-03-14T17:17:33;8.10;99.90